Time;durP1;ratioP1;P1;durP2;ratioP2;P2;SDS_P1;SDS_P2;PMS_P1;PMS_P2;Temp;Humidity;BMP_temperature;BMP_pressure;BME280_temperature;BME280_humidity;BME280_pressure;Samples;Min_cycle;Max_cycle;Signal;HPM_P1;HPM_P2
2021/01/06 00:01:23;;;;;;;97.82;38.35;;;1.00;99.90;;;;;;5012058;28;20037;-74
2021/01/06 00:03:49;;;;;;;99.07;39.53;;;1.00;99.90;;;;;;5014904;28;20026;-73
2021/01/06 00:06:17;;;;;;;99.43;40.33;;;1.00;99.90;;;;;;5015349;28;20399;-73
2021/01/06 00:08:46;;;;;;;107.50;41.55;;;1.10;99.90;;;;;;5015636;28;20511;-74
2021/01/06 00:11:13;;;;;;;102.38;40.78;;;1.00;99.90;;;;;;5015603;28;20093;-74
2021/01/06 00:13:39;;;;;;;91.30;37.45;;;1.10;99.90;;;;;;5015396;28;20089;-74
2021/01/06 00:16:05;;;;;;;88.45;38.03;;;1.10;99.90;;;;;;5015714;28;20030;-74
2021/01/06 00:18:31;;;;;;;90.88;39.53;;;1.10;99.90;;;;;;5015255;28;20037;-73
2021/01/06 00:20:57;;;;;;;97.47;38.13;;;1.10;99.90;;;;;;5015306;28;20034;-73
2021/01/06 00:23:24;;;;;;;92.18;37.13;;;1.00;99.90;;;;;;5015280;28;20033;-74
2021/01/06 00:25:50;;;;;;;93.05;39.80;;;1.10;99.90;;;;;;5015333;28;20416;-74
2021/01/06 00:28:18;;;;;;;103.03;38.22;;;1.10;99.90;;;;;;4997473;28;20064;-74
2021/01/06 00:30:47;;;;;;;94.88;39.85;;;1.10;99.90;;;;;;5015203;28;20540;-74
2021/01/06 00:33:16;;;;;;;95.70;38.10;;;1.10;99.90;;;;;;5015011;28;20022;-73
2021/01/06 00:35:42;;;;;;;91.10;36.95;;;1.10;99.90;;;;;;5015128;28;20034;-73
2021/01/06 00:38:08;;;;;;;103.43;42.17;;;1.10;99.90;;;;;;4997581;28;20041;-73
2021/01/06 00:40:35;;;;;;;87.78;37.33;;;1.10;99.90;;;;;;5014988;28;20034;-74
2021/01/06 00:43:07;;;;;;;86.50;35.20;;;1.10;99.90;;;;;;4997423;28;20034;-73
2021/01/06 00:45:33;;;;;;;99.00;37.78;;;1.10;99.90;;;;;;5015012;28;20058;-74
2021/01/06 00:47:59;;;;;;;94.40;37.47;;;1.10;99.90;;;;;;4997295;28;20040;-74
2021/01/06 00:50:27;;;;;;;104.57;38.80;;;1.10;99.90;;;;;;5014773;28;20030;-74
2021/01/06 00:53:17;;;;;;;93.57;39.15;;;1.10;99.90;;;;;;5014665;28;20034;-73
2021/01/06 00:55:46;;;;;;;103.60;40.13;;;1.10;99.90;;;;;;5004174;28;20030;-74
2021/01/06 00:58:12;;;;;;;88.63;37.05;;;1.10;99.90;;;;;;5014671;28;20022;-74
2021/01/06 01:00:38;;;;;;;107.63;38.10;;;1.10;99.90;;;;;;5014647;28;20433;-73
2021/01/06 01:03:04;;;;;;;103.20;39.58;;;1.10;99.90;;;;;;4996972;28;20025;-73
2021/01/06 01:05:31;;;;;;;108.53;39.40;;;1.10;99.90;;;;;;5014500;28;20025;-75
2021/01/06 01:07:58;;;;;;;84.68;35.45;;;1.10;99.90;;;;;;5014360;28;20033;-74
2021/01/06 01:10:49;;;;;;;92.38;38.95;;;1.10;99.90;;;;;;4996922;28;20021;-73
2021/01/06 01:13:18;;;;;;;100.53;39.10;;;1.10;99.90;;;;;;5014072;28;20141;-73
2021/01/06 01:15:47;;;;;;;93.00;37.33;;;1.20;99.90;;;;;;5013647;28;20037;-73
2021/01/06 01:18:16;;;;;;;95.00;36.45;;;1.10;99.90;;;;;;5014334;28;20029;-73
2021/01/06 01:20:44;;;;;;;106.68;39.95;;;1.10;99.90;;;;;;5014266;28;20026;-74
2021/01/06 01:23:11;;;;;;;86.97;35.92;;;1.10;99.90;;;;;;5014365;28;20049;-73
2021/01/06 01:25:37;;;;;;;93.57;38.83;;;1.10;99.90;;;;;;5014105;28;20026;-74
2021/01/06 01:28:03;;;;;;;98.43;38.25;;;1.20;99.90;;;;;;5013982;28;20029;-74
2021/01/06 01:30:29;;;;;;;95.03;37.42;;;1.20;99.90;;;;;;5014049;28;20029;-74
2021/01/06 01:32:55;;;;;;;98.82;38.88;;;1.20;99.90;;;;;;5014048;28;20033;-74
2021/01/06 01:35:26;;;;;;;87.22;32.78;;;1.20;99.90;;;;;;5013866;28;20032;-73
2021/01/06 01:37:53;;;;;;;102.00;37.35;;;1.20;99.90;;;;;;4996434;28;20029;-73
2021/01/06 01:40:29;;;;;;;94.30;36.65;;;1.20;99.90;;;;;;5013767;28;20045;-73
2021/01/06 01:43:01;;;;;;;99.68;37.10;;;1.20;99.90;;;;;;5014023;28;20470;-73
2021/01/06 01:45:45;;;;;;;103.93;37.28;;;1.20;99.90;;;;;;5014625;28;20583;-74
2021/01/06 01:48:38;;;;;;;98.30;37.80;;;1.20;99.90;;;;;;5013658;28;20033;-73
2021/01/06 01:51:47;;;;;;;102.85;34.88;;;1.20;99.90;;;;;;5013648;28;20479;-74
2021/01/06 01:54:17;;;;;;;94.28;35.85;;;1.20;99.90;;;;;;4980487;28;20041;-74
2021/01/06 01:56:56;;;;;;;98.78;37.33;;;1.20;99.90;;;;;;4996086;28;20032;-74
2021/01/06 01:59:38;;;;;;;97.85;37.72;;;1.20;99.90;;;;;;5013618;28;20026;-74
2021/01/06 02:02:11;;;;;;;96.43;35.47;;;1.20;99.90;;;;;;5013461;28;20503;-73
2021/01/06 02:04:46;;;;;;;92.38;34.20;;;1.20;99.90;;;;;;5013570;28;20109;-74
2021/01/06 02:07:22;;;;;;;91.15;35.05;;;1.20;99.90;;;;;;4995886;28;20357;-74
2021/01/06 02:09:58;;;;;;;99.57;35.72;;;1.20;99.90;;;;;;5013824;28;20026;-74
2021/01/06 02:12:36;;;;;;;97.93;36.63;;;1.20;99.90;;;;;;5013241;28;20093;-74
2021/01/06 02:15:25;;;;;;;89.55;33.05;;;1.20;99.90;;;;;;4995721;28;20026;-73
2021/01/06 02:17:51;;;;;;;89.85;33.47;;;1.20;99.90;;;;;;5013374;28;20348;-73
2021/01/06 02:20:20;;;;;;;91.15;36.00;;;1.20;99.90;;;;;;5013151;28;20030;-74
2021/01/06 02:22:46;;;;;;;94.63;31.98;;;1.20;99.90;;;;;;5013003;28;20101;-74
2021/01/06 02:25:15;;;;;;;93.53;36.17;;;1.20;99.90;;;;;;5013061;28;20037;-73
2021/01/06 02:27:41;;;;;;;82.18;27.98;;;1.20;99.90;;;;;;5013093;28;20159;-74
2021/01/06 02:30:09;;;;;;;101.53;36.35;;;1.20;99.90;;;;;;5013020;28;20022;-74
2021/01/06 02:32:35;;;;;;;93.90;34.83;;;1.20;99.90;;;;;;5013186;28;20030;-74
2021/01/06 02:35:01;;;;;;;95.60;35.33;;;1.20;99.90;;;;;;5012756;28;20416;-74
2021/01/06 02:37:27;;;;;;;96.78;34.40;;;1.20;99.90;;;;;;5012746;28;20026;-73
2021/01/06 02:39:53;;;;;;;101.03;34.83;;;1.20;99.90;;;;;;4996196;28;20042;-72
2021/01/06 02:42:21;;;;;;;86.32;34.38;;;1.20;99.90;;;;;;5014001;28;20036;-72
2021/01/06 02:44:47;;;;;;;99.63;36.95;;;1.20;99.90;;;;;;4995647;28;20029;-72
2021/01/06 02:47:15;;;;;;;122.03;38.95;;;1.20;99.90;;;;;;5013067;28;20125;-74
2021/01/06 02:49:42;;;;;;;114.18;37.63;;;1.20;99.90;;;;;;5013221;28;20026;-72
2021/01/06 02:52:15;;;;;;;104.25;36.65;;;1.20;99.90;;;;;;5013369;28;20030;-73
2021/01/06 02:54:43;;;;;;;113.55;37.58;;;1.20;99.90;;;;;;5013589;28;20100;-73
2021/01/06 02:57:09;;;;;;;105.07;38.75;;;1.20;99.90;;;;;;5013166;28;20026;-73
2021/01/06 02:59:41;;;;;;;112.00;35.90;;;1.20;99.90;;;;;;5012908;28;20484;-73
2021/01/06 03:02:09;;;;;;;125.15;38.63;;;1.20;99.90;;;;;;5012541;28;20026;-73
2021/01/06 03:04:39;;;;;;;117.35;37.10;;;1.20;99.90;;;;;;5013020;28;20021;-73
2021/01/06 03:07:08;;;;;;;135.98;40.47;;;1.20;99.90;;;;;;5012564;28;20026;-73
2021/01/06 03:09:40;;;;;;;115.82;39.00;;;1.20;99.90;;;;;;4995973;28;20022;-73
2021/01/06 03:12:12;;;;;;;139.07;39.28;;;1.30;99.90;;;;;;4996823;28;20088;-73
2021/01/06 03:14:39;;;;;;;;;;;1.30;99.90;;;;;;5013953;28;20038;-73
2021/01/06 03:17:07;;;;;;;100.07;36.45;;;1.30;99.90;;;;;;5012437;28;19906;-73
2021/01/06 03:19:36;;;;;;;113.85;37.70;;;1.20;99.90;;;;;;4994783;28;20384;-73
2021/01/06 03:22:05;;;;;;;122.80;40.97;;;1.30;99.90;;;;;;4995315;28;20488;-73
2021/01/06 03:24:36;;;;;;;127.05;39.42;;;1.30;99.90;;;;;;5012613;28;20028;-73
2021/01/06 03:27:02;;;;;;;124.18;39.30;;;1.30;99.90;;;;;;5012870;28;20030;-73
2021/01/06 03:29:31;;;;;;;123.20;39.65;;;1.30;99.90;;;;;;5012145;28;20018;-73
2021/01/06 03:32:01;;;;;;;128.98;39.30;;;1.30;99.90;;;;;;5012047;28;20029;-73
2021/01/06 03:34:35;;;;;;;118.07;39.65;;;1.30;99.90;;;;;;5012352;28;20014;-72
2021/01/06 03:37:25;;;;;;;134.43;39.67;;;1.30;99.90;;;;;;5012426;28;20029;-72
2021/01/06 03:39:59;;;;;;;114.97;38.20;;;1.30;99.90;;;;;;5015941;28;20080;-73
2021/01/06 03:42:27;;;;;;;116.47;40.03;;;1.30;99.90;;;;;;5015956;28;20076;-72
2021/01/06 03:44:53;;;;;;;125.68;35.40;;;1.30;99.90;;;;;;5015906;28;20071;-72
2021/01/06 03:47:31;;;;;;;128.25;38.90;;;1.30;99.90;;;;;;5015877;28;20041;-72
2021/01/06 03:49:56;;;;;;;111.18;37.05;;;1.30;99.90;;;;;;5016161;28;20729;-73
2021/01/06 03:52:40;;;;;;;130.18;44.97;;;1.30;99.90;;;;;;5015815;28;20053;-73
2021/01/06 03:55:32;;;;;;;121.32;39.05;;;1.30;99.90;;;;;;5015956;28;20025;-73
2021/01/06 03:57:59;;;;;;;118.18;38.17;;;1.30;99.90;;;;;;5016210;28;20053;-74
2021/01/06 04:00:48;;;;;;;141.23;43.60;;;1.30;99.90;;;;;;5015611;28;20029;-74
2021/01/06 04:03:26;;;;;;;146.98;42.70;;;1.30;99.90;;;;;;5015893;28;20030;-73
2021/01/06 04:05:54;;;;;;;136.35;42.20;;;1.30;99.90;;;;;;5015536;28;20026;-74
2021/01/06 04:08:28;;;;;;;164.85;46.72;;;1.20;99.90;;;;;;5015749;28;20029;-74
2021/01/06 04:10:56;;;;;;;174.05;48.67;;;1.20;99.90;;;;;;5015971;28;20033;-73
2021/01/06 04:13:22;;;;;;;186.90;56.22;;;1.20;99.90;;;;;;5015438;28;20046;-74
2021/01/06 04:15:48;;;;;;;169.23;50.70;;;1.20;99.90;;;;;;5015297;28;20021;-74
2021/01/06 04:18:14;;;;;;;161.35;46.50;;;1.20;99.90;;;;;;5015304;28;20021;-74
2021/01/06 04:20:42;;;;;;;161.50;45.47;;;1.30;99.90;;;;;;5015124;28;20037;-74
2021/01/06 04:23:15;;;;;;;162.40;45.65;;;1.20;99.90;;;;;;5015261;28;20514;-74
2021/01/06 04:25:43;;;;;;;159.50;48.25;;;1.20;99.90;;;;;;5015083;28;20064;-74
2021/01/06 04:28:19;;;;;;;146.65;44.95;;;1.30;99.90;;;;;;5015139;28;20100;-74
2021/01/06 04:30:51;;;;;;;188.65;48.47;;;1.30;99.90;;;;;;5014892;28;20041;-74
2021/01/06 04:33:17;;;;;;;186.40;49.63;;;1.30;99.90;;;;;;5014819;28;20047;-74
2021/01/06 04:35:42;;;;;;;179.30;50.22;;;1.30;99.90;;;;;;5015572;28;20469;-74
2021/01/06 04:38:12;;;;;;;174.77;46.67;;;1.30;99.90;;;;;;5015604;28;20026;-74
2021/01/06 04:40:41;;;;;;;194.95;48.38;;;1.30;99.90;;;;;;5015700;28;20105;-74
2021/01/06 04:43:27;;;;;;;218.43;53.45;;;1.30;99.90;;;;;;5015117;28;20037;-74
2021/01/06 04:46:12;;;;;;;235.18;56.50;;;1.30;99.90;;;;;;5014805;28;20029;-73
2021/01/06 04:49:07;;;;;;;210.75;51.22;;;1.20;99.90;;;;;;5013609;28;20029;-74
2021/01/06 04:51:39;;;;;;;258.83;57.20;;;1.20;99.90;;;;;;5014895;28;20790;-75
2021/01/06 04:54:16;;;;;;;241.60;53.33;;;1.20;99.90;;;;;;4997335;28;20075;-74
2021/01/06 04:57:01;;;;;;;256.35;56.17;;;1.20;99.90;;;;;;4996979;28;20022;-74
2021/01/06 04:59:33;;;;;;;287.02;59.38;;;1.10;99.90;;;;;;4997016;28;20026;-73
2021/01/06 05:02:15;;;;;;;279.42;59.70;;;1.10;99.90;;;;;;4996866;28;20018;-74
2021/01/06 05:05:16;;;;;;;313.90;62.45;;;1.10;99.90;;;;;;5016357;28;20046;-74
2021/01/06 05:08:05;;;;;;;257.80;54.13;;;1.20;99.90;;;;;;4986701;28;20128;-74
2021/01/06 05:10:43;;;;;;;286.15;60.22;;;1.20;99.90;;;;;;5014387;28;20097;-74
2021/01/06 05:13:22;;;;;;;307.65;58.78;;;1.20;99.90;;;;;;4996850;28;20046;-74
2021/01/06 05:16:14;;;;;;;274.38;58.30;;;1.20;99.90;;;;;;5014245;28;20026;-72
2021/01/06 05:18:41;;;;;;;332.27;64.40;;;1.20;99.90;;;;;;4988228;28;20034;-74
2021/01/06 05:21:19;;;;;;;264.00;59.58;;;1.20;99.90;;;;;;4997216;28;20029;-74
2021/01/06 05:23:49;;;;;;;266.63;55.63;;;1.20;99.90;;;;;;5015156;28;20022;-74
2021/01/06 05:26:16;;;;;;;242.52;56.95;;;1.20;99.90;;;;;;5014756;28;20034;-74
2021/01/06 05:28:44;;;;;;;333.05;67.30;;;1.20;99.90;;;;;;4997113;28;20034;-74
2021/01/06 05:31:10;;;;;;;336.90;71.32;;;1.20;99.90;;;;;;5014662;28;20025;-75
2021/01/06 05:33:40;;;;;;;348.77;71.75;;;1.30;99.90;;;;;;4997505;28;20088;-74
2021/01/06 05:36:06;;;;;;;410.05;85.43;;;1.30;99.90;;;;;;5015491;28;20052;-74
2021/01/06 05:38:32;;;;;;;443.33;87.65;;;1.30;99.90;;;;;;5015038;28;20025;-74
2021/01/06 05:40:58;;;;;;;452.13;76.93;;;1.30;99.90;;;;;;5014248;28;20113;-74
2021/01/06 05:43:27;;;;;;;442.65;81.45;;;1.30;99.90;;;;;;4996586;28;20108;-74
2021/01/06 05:45:57;;;;;;;416.55;76.43;;;1.30;99.90;;;;;;5014509;28;20026;-74
2021/01/06 05:48:49;;;;;;;542.03;82.28;;;1.30;99.90;;;;;;5014289;28;20053;-74
2021/01/06 05:51:36;;;;;;;827.45;115.70;;;1.30;99.90;;;;;;5014267;28;20017;-74
2021/01/06 05:54:05;;;;;;;400.77;67.90;;;1.30;99.90;;;;;;5015054;28;20369;-73
2021/01/06 05:56:56;;;;;;;440.27;73.57;;;1.30;99.90;;;;;;5014428;28;20413;-75
2021/01/06 05:59:47;;;;;;;558.78;85.75;;;1.30;99.90;;;;;;5013169;28;20033;-74
2021/01/06 06:03:00;;;;;;;624.72;90.53;;;1.30;99.90;;;;;;5013223;28;20103;-75
2021/01/06 06:05:44;;;;;;;708.72;98.07;;;1.30;99.90;;;;;;4936651;29;20047;-74
2021/01/06 06:08:43;;;;;;;660.80;95.32;;;1.30;99.90;;;;;;4952530;29;20086;-74
2021/01/06 06:11:46;;;;;;;670.65;100.22;;;1.30;99.90;;;;;;4984482;28;20383;-74
2021/01/06 06:14:12;;;;;;;614.92;99.57;;;1.30;99.90;;;;;;5013341;28;20046;-76
2021/01/06 06:16:49;;;;;;;491.88;78.07;;;1.30;99.90;;;;;;5013143;28;20118;-75
2021/01/06 06:19:56;;;;;;;550.50;78.60;;;1.30;99.90;;;;;;5016323;28;20523;-75
2021/01/06 06:22:29;;;;;;;797.17;103.45;;;1.30;99.90;;;;;;5012308;28;20098;-75
2021/01/06 06:25:04;;;;;;;1171.68;139.13;;;1.40;99.90;;;;;;5012355;28;20033;-75
2021/01/06 06:28:00;;;;;;;766.20;101.15;;;1.40;99.90;;;;;;5012186;28;20079;-75
2021/01/06 06:30:55;;;;;;;496.70;79.47;;;1.40;99.90;;;;;;5004648;28;20137;-75
2021/01/06 06:33:29;;;;;;;832.22;102.25;;;1.40;99.90;;;;;;5012210;28;20022;-76
2021/01/06 06:35:55;;;;;;;788.47;100.93;;;1.50;99.90;;;;;;5012142;28;20105;-75
2021/01/06 06:38:41;;;;;;;747.60;102.97;;;1.50;99.90;;;;;;4994287;28;20072;-73
2021/01/06 06:41:10;;;;;;;815.92;107.63;;;1.60;99.90;;;;;;5011701;28;20026;-75
2021/01/06 06:43:47;;;;;;;703.83;96.05;;;1.60;99.90;;;;;;5011477;28;20033;-75
2021/01/06 06:46:52;;;;;;;597.80;84.75;;;1.60;99.90;;;;;;5011589;28;20385;-75
2021/01/06 06:49:24;;;;;;;677.00;91.25;;;1.60;99.90;;;;;;5011690;28;20026;-74
2021/01/06 06:52:08;;;;;;;551.47;74.90;;;1.60;99.90;;;;;;5011874;28;20108;-75
2021/01/06 06:55:11;;;;;;;645.33;84.40;;;1.60;99.90;;;;;;5011895;28;20057;-75
2021/01/06 06:57:58;;;;;;;508.27;68.90;;;1.70;99.90;;;;;;4994032;28;20040;-75
2021/01/06 07:00:28;;;;;;;405.38;67.03;;;1.70;99.90;;;;;;4994071;28;20041;-74
2021/01/06 07:02:58;;;;;;;544.83;82.93;;;1.70;99.90;;;;;;5011389;28;20381;-74
2021/01/06 07:05:29;;;;;;;683.53;88.35;;;1.80;99.90;;;;;;5011935;28;20053;-75
2021/01/06 07:08:01;;;;;;;786.80;97.80;;;1.70;99.90;;;;;;5012025;28;20427;-75
2021/01/06 07:10:32;;;;;;;638.50;81.50;;;1.80;99.90;;;;;;4994428;28;20117;-74
2021/01/06 07:13:14;;;;;;;649.05;85.80;;;1.80;99.90;;;;;;5010816;28;20071;-75
2021/01/06 07:15:47;;;;;;;621.22;82.80;;;1.80;99.90;;;;;;5011301;28;20420;-75
2021/01/06 07:18:37;;;;;;;615.15;80.53;;;1.80;99.90;;;;;;5011029;28;20141;-74
2021/01/06 07:21:06;;;;;;;593.10;79.78;;;1.80;99.90;;;;;;4994010;28;20053;-74
2021/01/06 07:23:37;;;;;;;548.38;80.38;;;1.80;99.90;;;;;;5011824;28;20030;-74
2021/01/06 07:26:10;;;;;;;540.28;76.38;;;1.80;99.90;;;;;;5011655;28;20017;-75
2021/01/06 07:28:36;;;;;;;751.08;92.68;;;1.90;99.90;;;;;;5011480;28;20038;-74
2021/01/06 07:31:30;;;;;;;1129.07;135.15;;;1.90;99.90;;;;;;5011587;28;20496;-75
2021/01/06 07:34:00;;;;;;;701.50;92.57;;;2.00;99.90;;;;;;5009002;28;20045;-75
2021/01/06 07:36:29;;;;;;;884.72;104.93;;;2.00;99.90;;;;;;5010965;28;20475;-75
2021/01/06 07:38:56;;;;;;;714.15;97.28;;;2.00;99.90;;;;;;4993929;28;20503;-75
2021/01/06 07:41:24;;;;;;;788.78;102.68;;;2.00;99.90;;;;;;5011385;28;20110;-74
2021/01/06 07:44:24;;;;;;;743.95;99.60;;;2.10;99.90;;;;;;5011286;28;20120;-75
2021/01/06 07:47:14;;;;;;;535.75;70.78;;;2.10;99.90;;;;;;5011096;28;20069;-75
2021/01/06 07:49:45;;;;;;;442.58;67.63;;;2.10;99.90;;;;;;5010552;28;20118;-75
2021/01/06 07:52:26;;;;;;;379.95;63.30;;;2.20;99.90;;;;;;5011079;28;20033;-75
2021/01/06 07:54:57;;;;;;;644.90;89.72;;;2.20;99.90;;;;;;5011279;28;20048;-75
2021/01/06 07:57:33;;;;;;;690.23;96.20;;;2.30;99.90;;;;;;5011455;28;20030;-75
2021/01/06 08:00:05;;;;;;;501.35;68.03;;;2.30;99.90;;;;;;5010864;28;20156;-75
2021/01/06 08:02:52;;;;;;;371.23;64.77;;;2.30;99.90;;;;;;5011099;28;20025;-75
2021/01/06 08:05:33;;;;;;;407.75;60.72;;;2.30;99.90;;;;;;5010959;28;20257;-74
2021/01/06 08:08:01;;;;;;;677.00;91.05;;;2.30;99.90;;;;;;5010651;28;20353;-74
2021/01/06 08:10:28;;;;;;;900.97;112.35;;;2.30;99.90;;;;;;5010501;28;20026;-74
2021/01/06 08:13:13;;;;;;;676.45;84.10;;;2.30;99.90;;;;;;5010570;28;20053;-75
2021/01/06 08:15:39;;;;;;;549.08;77.93;;;2.30;99.90;;;;;;4993144;28;20065;-75
2021/01/06 08:18:08;;;;;;;888.67;115.22;;;2.40;99.90;;;;;;5010564;28;20030;-74
2021/01/06 08:20:51;;;;;;;545.38;80.65;;;2.40;99.90;;;;;;5010763;28;20021;-75
2021/01/06 08:23:27;;;;;;;680.40;106.03;;;2.40;99.90;;;;;;5011816;28;20776;-76
2021/01/06 08:25:59;;;;;;;747.17;112.78;;;2.40;99.90;;;;;;5014769;28;20026;-78
2021/01/06 08:28:30;;;;;;;502.17;73.65;;;2.40;99.90;;;;;;5014922;28;20030;-78
2021/01/06 08:31:14;;;;;;;451.08;66.53;;;2.40;99.90;;;;;;5014920;28;20026;-77
2021/01/06 08:33:56;;;;;;;443.65;74.82;;;2.40;99.90;;;;;;5015073;28;20025;-79
2021/01/06 08:36:32;;;;;;;695.72;97.68;;;2.50;99.90;;;;;;4996859;28;20030;-77
2021/01/06 08:39:15;;;;;;;439.83;71.32;;;2.50;99.90;;;;;;5014136;28;20034;-77
2021/01/06 08:41:42;;;;;;;482.33;81.68;;;2.50;99.90;;;;;;5029318;28;20476;-77
2021/01/06 08:44:25;;;;;;;406.92;72.85;;;2.60;99.90;;;;;;5013753;28;20109;-78
2021/01/06 08:46:55;;;;;;;462.52;77.55;;;2.70;99.90;;;;;;5013434;28;20464;-78
2021/01/06 08:49:24;;;;;;;342.10;71.28;;;2.70;99.90;;;;;;5013337;28;20468;-78
2021/01/06 08:51:53;;;;;;;372.85;70.00;;;2.80;99.90;;;;;;4996364;28;20464;-78
2021/01/06 08:54:30;;;;;;;257.33;56.65;;;2.80;99.90;;;;;;5013923;28;20041;-78
2021/01/06 08:57:16;;;;;;;197.52;52.33;;;2.90;99.90;;;;;;5013643;28;20053;-78
2021/01/06 08:59:42;;;;;;;240.18;58.58;;;2.90;99.90;;;;;;4980007;28;20034;-78
2021/01/06 09:02:31;;;;;;;254.90;55.55;;;3.00;99.90;;;;;;5013975;28;20140;-78
2021/01/06 09:04:57;;;;;;;212.27;56.63;;;3.10;99.90;;;;;;5014032;28;20022;-78
2021/01/06 09:07:30;;;;;;;178.48;53.45;;;3.10;99.90;;;;;;5014310;28;20029;-78
2021/01/06 09:09:59;;;;;;;250.30;58.67;;;3.20;99.90;;;;;;5013041;28;20018;-79
2021/01/06 09:12:43;;;;;;;266.35;62.70;;;3.20;99.90;;;;;;5013376;28;20022;-78
2021/01/06 09:15:35;;;;;;;386.23;73.93;;;3.30;99.90;;;;;;5013441;28;20514;-78
2021/01/06 09:18:18;;;;;;;257.90;62.88;;;3.30;99.90;;;;;;5013400;28;20033;-78
2021/01/06 09:21:15;;;;;;;212.55;54.00;;;3.30;99.90;;;;;;5013604;28;20026;-78
2021/01/06 09:23:46;;;;;;;224.25;55.78;;;3.40;99.90;;;;;;5013366;28;20033;-79
2021/01/06 09:26:16;;;;;;;214.45;54.38;;;3.40;99.90;;;;;;5012782;28;20105;-79
2021/01/06 09:28:46;;;;;;;211.30;56.75;;;3.50;99.90;;;;;;4995951;28;20053;-79
2021/01/06 09:31:14;;;;;;;223.27;55.33;;;3.50;99.90;;;;;;5013261;28;20141;-77
2021/01/06 09:33:41;;;;;;;278.15;60.55;;;3.50;99.90;;;;;;5013076;28;20035;-78
2021/01/06 09:36:08;;;;;;;278.95;61.83;;;3.60;99.90;;;;;;4994850;28;20026;-78
2021/01/06 09:38:42;;;;;;;385.90;71.13;;;3.60;99.90;;;;;;5012747;28;20172;-77
2021/01/06 09:41:15;;;;;;;319.83;66.88;;;3.60;99.90;;;;;;5012320;28;20036;-78
2021/01/06 09:43:49;;;;;;;246.10;67.25;;;3.60;99.90;;;;;;5012925;28;20017;-76
2021/01/06 09:46:36;;;;;;;263.00;66.20;;;3.60;99.90;;;;;;5012845;28;20038;-80
2021/01/06 09:49:12;;;;;;;396.75;76.85;;;3.70;99.90;;;;;;5012831;28;20034;-77
2021/01/06 09:51:44;;;;;;;318.23;70.60;;;3.70;99.90;;;;;;5012953;28;20045;-76
2021/01/06 09:54:12;;;;;;;329.42;73.57;;;3.60;99.90;;;;;;5012542;28;20329;-76
2021/01/06 09:56:38;;;;;;;265.08;64.25;;;3.60;99.90;;;;;;4998851;28;20021;-75
2021/01/06 09:59:26;;;;;;;300.95;68.32;;;3.60;99.90;;;;;;4999448;28;20030;-76
2021/01/06 10:02:01;;;;;;;334.08;68.05;;;3.60;99.90;;;;;;4994948;28;20029;-77
2021/01/06 10:04:32;;;;;;;254.30;61.45;;;3.70;99.90;;;;;;5013059;28;20033;-78
2021/01/06 10:07:46;;;;;;;282.88;63.80;;;3.70;99.90;;;;;;5013831;28;20095;-77
2021/01/06 10:10:34;;;;;;;262.98;64.82;;;3.70;99.90;;;;;;4983617;28;20089;-78
2021/01/06 10:13:08;;;;;;;277.88;60.15;;;3.80;99.90;;;;;;5013128;28;20095;-77
2021/01/06 10:16:11;;;;;;;199.60;56.47;;;3.80;99.90;;;;;;5012066;28;20080;-77
2021/01/06 10:18:46;;;;;;;287.63;62.70;;;3.80;99.90;;;;;;4993632;28;20018;-77
2021/01/06 10:21:21;;;;;;;241.25;54.58;;;3.90;99.90;;;;;;4994122;28;20030;-77
2021/01/06 10:24:06;;;;;;;390.42;71.55;;;3.90;99.90;;;;;;5011517;28;20030;-78
2021/01/06 10:26:51;;;;;;;266.83;63.95;;;3.90;99.90;;;;;;5011545;28;20076;-78
2021/01/06 10:29:29;;;;;;;270.33;76.03;;;3.90;99.90;;;;;;4993674;28;20064;-78
2021/01/06 10:32:07;;;;;;;207.23;59.95;;;4.00;99.90;;;;;;5011885;28;20069;-77
2021/01/06 10:34:46;;;;;;;218.80;63.00;;;4.00;99.90;;;;;;4993931;28;20384;-77
2021/01/06 10:37:22;;;;;;;220.98;59.25;;;4.10;99.90;;;;;;5011666;28;20121;-77
2021/01/06 10:39:54;;;;;;;276.00;64.13;;;4.10;99.90;;;;;;5011711;28;20029;-77
2021/01/06 10:42:20;;;;;;;371.55;72.47;;;4.10;99.90;;;;;;5011271;28;20026;-77
2021/01/06 10:44:54;;;;;;;237.75;60.90;;;4.20;99.90;;;;;;4993780;28;20423;-78
2021/01/06 10:47:31;;;;;;;210.80;58.60;;;4.20;99.90;;;;;;5011325;28;20025;-78
2021/01/06 10:50:06;;;;;;;547.40;92.82;;;4.20;99.90;;;;;;5011592;28;20026;-77
2021/01/06 10:52:52;;;;;;;735.50;111.03;;;4.30;99.90;;;;;;5011699;28;20026;-78
2021/01/06 10:55:37;;;;;;;290.80;72.10;;;4.30;99.90;;;;;;5011248;28;20435;-78
2021/01/06 10:58:06;;;;;;;333.20;74.78;;;4.30;99.90;;;;;;5011677;28;20105;-80
2021/01/06 11:01:17;;;;;;;356.05;67.72;;;4.30;99.90;;;;;;5011252;28;20079;-78
2021/01/06 11:03:43;;;;;;;210.75;60.20;;;4.30;99.90;;;;;;4984397;28;20038;-78
2021/01/06 11:06:26;;;;;;;191.30;61.38;;;4.40;99.90;;;;;;4993347;28;20033;-77
2021/01/06 11:09:02;;;;;;;192.68;63.20;;;4.40;99.90;;;;;;5010399;28;20026;-79
2021/01/06 11:11:33;;;;;;;196.82;64.75;;;4.50;99.90;;;;;;5010961;28;20018;-79
2021/01/06 11:14:30;;;;;;;350.70;80.03;;;4.60;99.90;;;;;;5010709;28;20110;-77
2021/01/06 11:17:11;;;;;;;249.98;74.85;;;4.60;99.90;;;;;;5011821;28;20030;-77
2021/01/06 11:19:46;;;;;;;211.00;71.90;;;4.70;99.90;;;;;;5011039;28;20030;-78
2021/01/06 11:22:43;;;;;;;199.60;66.55;;;4.70;99.90;;;;;;5010554;28;20065;-78
2021/01/06 11:25:42;;;;;;;205.88;64.18;;;4.80;99.90;;;;;;5010335;28;20044;-77
2021/01/06 11:28:42;;;;;;;166.20;62.10;;;4.90;99.90;;;;;;5010420;28;20033;-77
2021/01/06 11:31:21;;;;;;;159.27;58.92;;;4.90;99.90;;;;;;5025387;28;20033;-78
2021/01/06 11:33:50;;;;;;;160.70;57.50;;;5.00;99.90;;;;;;4992521;28;20467;-77
2021/01/06 11:36:23;;;;;;;170.77;58.70;;;5.00;99.90;;;;;;5010719;28;20033;-77
2021/01/06 11:38:59;;;;;;;167.50;57.40;;;5.00;99.90;;;;;;5010009;28;20026;-78
2021/01/06 11:41:27;;;;;;;170.30;56.03;;;5.10;99.90;;;;;;5010452;28;20352;-78
2021/01/06 11:44:14;;;;;;;151.38;52.10;;;5.10;99.90;;;;;;4992432;28;20068;-79
2021/01/06 11:46:45;;;;;;;155.18;51.97;;;5.20;99.90;;;;;;5010231;28;20034;-77
2021/01/06 11:49:11;;;;;;;148.70;52.30;;;5.20;99.90;;;;;;5010266;28;20033;-77
2021/01/06 11:52:00;;;;;;;155.73;55.88;;;5.20;99.90;;;;;;5009828;28;20018;-77
2021/01/06 11:54:28;;;;;;;134.00;49.47;;;5.20;99.90;;;;;;5009743;28;20048;-78
2021/01/06 11:57:03;;;;;;;151.07;55.92;;;5.20;99.90;;;;;;5010111;28;20017;-78
2021/01/06 11:59:45;;;;;;;162.32;52.25;;;5.30;99.90;;;;;;5012273;28;20100;-79
2021/01/06 12:02:16;;;;;;;133.93;45.83;;;5.30;99.90;;;;;;5014252;28;20475;-79
2021/01/06 12:04:49;;;;;;;94.45;33.95;;;5.30;99.90;;;;;;5014042;28;20033;-81
2021/01/06 12:07:29;;;;;;;;;;;5.30;99.90;;;;;;5014362;28;20029;-79
2021/01/06 12:10:27;;;;;;;83.28;28.77;;;5.30;99.90;;;;;;5014119;28;19927;-78
2021/01/06 12:12:56;;;;;;;73.32;26.65;;;5.30;99.90;;;;;;5023456;28;20817;-79
2021/01/06 12:15:43;;;;;;;81.22;26.15;;;5.30;99.90;;;;;;4994273;28;20034;-78
2021/01/06 12:18:46;;;;;;;76.45;27.20;;;5.30;99.90;;;;;;4994555;28;20053;-79
2021/01/06 12:21:33;;;;;;;70.72;24.80;;;5.30;99.90;;;;;;4990823;28;20022;-79
2021/01/06 12:24:20;;;;;;;91.32;37.20;;;5.30;99.90;;;;;;4993542;28;20445;-78
2021/01/06 12:26:59;;;;;;;68.68;25.85;;;5.40;99.90;;;;;;4994076;28;20042;-80
2021/01/06 12:29:34;;;;;;;74.07;26.65;;;5.40;99.90;;;;;;4993995;28;20049;-79
2021/01/06 12:32:11;;;;;;;68.45;26.17;;;5.40;99.90;;;;;;4994226;28;20365;-79
2021/01/06 12:34:43;;;;;;;71.22;25.80;;;5.40;99.90;;;;;;4994015;28;20027;-79
2021/01/06 12:37:11;;;;;;;65.07;25.93;;;5.40;99.90;;;;;;4990561;28;20073;-79
2021/01/06 12:39:57;;;;;;;69.45;24.27;;;5.50;99.90;;;;;;4975988;28;20026;-79
2021/01/06 12:42:47;;;;;;;71.05;25.30;;;5.50;99.90;;;;;;4983441;28;20110;-79
2021/01/06 12:45:13;;;;;;;67.13;24.05;;;5.50;99.90;;;;;;5015176;28;20022;-79
2021/01/06 12:47:58;;;;;;;67.78;26.17;;;5.50;99.90;;;;;;4995515;28;20474;-78
2021/01/06 12:50:57;;;;;;;77.10;26.50;;;5.50;99.90;;;;;;5013554;28;20021;-80
2021/01/06 12:53:36;;;;;;;80.85;26.90;;;5.40;99.90;;;;;;5013335;28;20026;-80
2021/01/06 12:56:04;;;;;;;80.60;26.98;;;5.40;99.90;;;;;;5012896;28;20072;-80
2021/01/06 12:58:45;;;;;;;76.35;27.60;;;5.40;99.90;;;;;;5013324;28;20057;-80
2021/01/06 13:01:19;;;;;;;85.63;29.08;;;5.40;99.90;;;;;;5012819;28;20037;-77
2021/01/06 13:03:48;;;;;;;94.80;32.03;;;5.30;99.90;;;;;;5012967;28;20365;-77
2021/01/06 13:06:15;;;;;;;117.93;38.13;;;5.30;99.90;;;;;;5012615;28;20030;-77
2021/01/06 13:08:50;;;;;;;98.32;36.35;;;5.30;99.90;;;;;;5012906;28;20038;-78
2021/01/06 13:11:30;;;;;;;88.50;32.15;;;5.20;99.90;;;;;;5011320;28;20427;-78
2021/01/06 13:14:14;;;;;;;82.35;28.42;;;5.20;99.90;;;;;;5012242;28;20383;-79